Drummond Island, MI (49726)

2:27 AM EDT on September 30, 2016 (GMT -0400)
Potagannissing Bay Front | | Change Station

Elev 587 ft 46.06 °N, 83.67 °W | Updated 2 seconds ago

Overcast
Overcast
60.4 °F
Feels Like 60.4 °F
N
6.0
Wind Variable Wind from ENE
Gusts 15.0 mph

Today
High -- | Low -- °F
--% Chance of Precip.
Yesterday
High -- | Low -- °F
Precip. -- in
Pressure 30.39 in
Visibility 10.0 miles
Clouds Overcast 9000 ft
Dew Point 55 °F
Humidity 83%
Rainfall 0.00 in
Snow Depth Not available.
7:32 AM 7:15 PM
Waning Crescent, 1% visible
METAR KDRM 300615Z AUTO 07004KT 10SM OVC090 16/12 A3039 RMK AO2 T01590121
Pressure 30.39 in
Visibility 10.0 miles
Clouds Overcast 9000 ft
Dew Point 55 °F
Humidity 83%
Rainfall 0.00 in
Snow Depth Not available.
7:32 AM 7:15 PM
Waning Crescent, 1% visible
METAR KDRM 300615Z AUTO 07004KT 10SM OVC090 16/12 A3039 RMK AO2 T01590121

10-Day Weather Forecast

Almanac

Astronomy

Sep. 30, 2016 Rise Set
Actual Time
Civil Twilight
Nautical Twilight
Astronomical Twilight
Moon
Length of Visible Light
Length of Day
Tomorrow will be .
, % of the Moon is Illuminated

Today's Extremes

State Highs State Lows

Community

WunderPhotos

Upload Photos

1,942,668 photos uploaded!

WunderBlog® & News

Nearby

Air Quality

  Air Quality AQ Index Pollutant
Not available.

Snow Depth

Station Depth Elevation

Earthquake Activity

City Distance Mag. Time & Date
Minimum magnitude displayed is 2.5.

Coastal Water Temperatures

Place Temperature

Stations

Nearby Weather Stations

Station Location Temp. Windchill Dew Point Humidity Wind Precip. Elev Updated Type
                   

Watches & Warnings

There are currently no watches in effect.